AirSardinia Virtual Manager

AirSardinia Virtual La prima compagnia sarda di volo simulato




 METAR AND TAF INFORMATION
METAR FOR LGZA
ADDS - METARS form results

(1317 UTC 18 August 2019)
Data provider http://aviationweather.gov/metar/data/
 
METAR text: LGZA 181250Z 17009KT 9999 FEW020 31/17 Q1015
Conditions at: LGZA (ZAKINTHOS AIRPOR, GR) observed 1250 UTC 18 August 2019
Temperature: 31.0°C (88°F)
Dewpoint: 17.0°C (63°F) [RH = 43%]
Pressure (altimeter): 29.97 inches Hg (1015.0 mb)
Winds: from the S (170 degrees) at 10 MPH (9 knots; 4.6 m/s)
Visibility: 6 or more miles (10+ km)
Ceiling: at least 12,000 feet AGL
Clouds: few clouds at 2000 feet AGL
Weather: no significant weather observed at this time

METAR text: LGZA 181220Z 16009KT 9999 FEW020 30/20 Q1015
Conditions at: LGZA (ZAKINTHOS AIRPOR, GR) observed 1220 UTC 18 August 2019
Temperature: 30.0°C (86°F)
Dewpoint: 20.0°C (68°F) [RH = 55%]
Pressure (altimeter): 29.97 inches Hg (1015.0 mb)
Winds: from the SSE (160 degrees) at 10 MPH (9 knots; 4.6 m/s)
Visibility: 6 or more miles (10+ km)
Ceiling: at least 12,000 feet AGL
Clouds: few clouds at 2000 feet AGL
Weather: no significant weather observed at this time

Forecast for: LGZA (ZAKINTHOS AIRPOR, GR)
Text: TAF LGZA 181100Z 1812/1821 15010KT 9999 FEW020
Forecast period: 1200 to 2100 UTC 18 August 2019
Forecast type: FROM: standard forecast or significant change
Winds: from the SSE (150 degrees) at 12 MPH (10 knots; 5.1 m/s)
Visibility: 6 or more miles 10+ km)
Ceiling: at least 12,000 feet AGL
Clouds: few clouds at 2000 feet AGL
Weather: no significant weather forecast for this period
Text: BECMG 1812/1814 27010KT
Forecast period: 1200 to 2100 UTC 18 August 2019
Forecast type: BECOMING: Conditions expected to become as follows by 1400 UTC 18 August 2019
Winds: from the W (270 degrees) at 12 MPH (10 knots; 5.1 m/s)
Visibility: 6 or more miles 10+ km)
Ceiling: at least 12,000 feet AGL
Clouds: few clouds at 2000 feet AGL
Weather: no significant weather forecast for this period

 AIRPORT MAP

 RUNWAY INFORMATION
Runway 16 Runway length 7310 ft Runway width 98 ft
Runway elevation 11 ft Runway displaced threshold 640 ft Runway heading 163
Runway 34 Runway length 7310 ft Runway width 98 ft
Runway elevation 12 ft Runway displaced threshold 659 ft Runway heading 343

 AIRPORT FREQUENCIES
Type A/G Name RDO Frequency 563.7 MHz
Type TWR Name TWR Frequency 125.425 MHz

 AIRPORT NEAR NAVIGATION AIDS
Type VOR-DME Name Zakinthos Frequency 110.8 MHz
Type NDB Name Zakinthos Frequency 326 kHz